Albion, Washington
Current Conditions -  °F | °C
As of 3:53 PM on Sunday 25 Jan 2015 (Local Time) from KPUW Reporting Station
Clear Clear  
Wind Chill: 52°   Ceiling: Unl
Heat Index: 52°   Visibility: 10mi
Dew Point: 42°   Wind: 10mph
Humidity: 69%   Direction: 100°E
Pressure: 30.22"   Gusts: NA
Location:  46.79°N, 117.25°W
Report Text: KPUW 252353Z AUTO 10009KT 10SM CLR 11/06 A3022 RMK AO2 SLP242 T01110056 10122 20078 55008
Loading
Personal Weather Stations






























Interactive Weather Map New forecast layout! Learn more

10-Day Weather Forecast

Advertisements
Track Severe Weather on mobile